Airfield :
LOGIN :

Register | Disclaimer

   EN    FR    IT 

 










Legend :    VFR   Marginal VFR   IFR   Intensive IFR   Very Intensive IFR
Visi :
Ceiling :
>= 8 km
>= 3000ft
5 to 8 km
1000 to 3000 ft
1500m to 5 km
500 to 1000 ft
800 to 1500m
200 to 500 ft
< 800m
< 200 ft
Symbols :   Thunderstorms  Fog  Heavy snow  Heavy precipitations  Wind > 20 kt
SIGMETs :     Misc.  Thunderstorms  Icing  Turbulence  Mountain Waves  Volcanic Ashes







- Airport Elevation : 2096 ft
- IATA code : AUR
- Download approach charts


LFLW - Aurillac

CURRENT METAR :
  • 190900Z AUTO 09003KT 060V130 CAVOK 06/01 Q1022 NOSIG

EXPIRED METARs :
  • 190830Z AUTO 10005KT CAVOK 04/M00 Q1022 NOSIG
  • 190800Z AUTO 10005KT CAVOK 03/M01 Q1022 NOSIG
  • 190730Z AUTO 10005KT CAVOK 01/M02 Q1022 NOSIG
  • 190700Z AUTO 11006KT CAVOK 01/M02 Q1021 NOSIG
  • 190630Z AUTO 11006KT CAVOK 01/M02 Q1021 NOSIG

TAF TAF LFLW
Valid from the 19 at 09:00 until the 19 at 18:00 UTC


190800Z 1909/1918 VRB03KT CAVOK
TEMPO 1914/1916 FEW030
No reported NOTAMs for that airfield.
1 SIGMET reported for the Bordeaux FIR (LFBB) :
 
Severe turbulence
LFBB SIGMET 2 VALID 190800/191200 LFPW
LFBB BORDEAUX FIR/UIR SEV TURB FCST NW OF LINE N4330 W00145 - N4715 E00130 FL200/300 STNR NC=



MET'MAP, your aeronautical weather chart ! - Copyright ORBIFLY December 2007 - Disclaimer

ORBIFLY MET'MAP TEAM :

Programming & Development : Alexandra Zaïnal
Concept & Development : Baudouin d'Aumeries
Co-Development & Prog : Marc-Olivier Méhu
Technical & hardware support : Manuel Goepfert

Contact : metmap@orbifly.com




SOURCES & CREDITS :

   NOAA